createdAt,value
2023-03-15T00:01:16.052Z,101252.50
2023-03-15T00:03:46.081Z,101246.13
2023-03-15T00:06:16.369Z,101251.63
2023-03-15T00:08:47.397Z,101181.31
2023-03-15T00:11:18.196Z,101250.75
2023-03-15T00:13:46.463Z,101247.47
2023-03-15T00:16:17.620Z,101251.78
2023-03-15T00:18:47.136Z,101248.31
2023-03-15T00:21:14.544Z,101253.19
2023-03-15T00:23:41.144Z,101251.25
2023-03-15T00:26:07.766Z,101243.34
2023-03-15T00:28:34.405Z,101217.84
2023-03-15T00:31:05.451Z,101246.06
2023-03-15T00:33:35.046Z,101241.81
2023-03-15T00:36:07.337Z,101244.50
2023-03-15T00:38:35.127Z,101252.78
2023-03-15T00:41:10.174Z,101241.19
2023-03-15T00:43:37.080Z,101254.91
2023-03-15T00:46:08.450Z,101259.25
2023-03-15T00:48:35.498Z,101240.84
2023-03-15T00:51:09.395Z,101255.34
2023-03-15T00:53:39.818Z,101261.34
2023-03-15T00:56:12.262Z,101284.44
2023-03-15T00:58:41.579Z,101264.75
2023-03-15T01:01:10.490Z,101302.19
2023-03-15T01:03:37.271Z,101307.66
2023-03-15T01:06:09.350Z,101313.06
2023-03-15T01:08:36.162Z,101303.94
2023-03-15T01:11:05.464Z,101334.88
2023-03-15T01:13:34.992Z,101341.50
2023-03-15T01:16:01.966Z,101331.06
2023-03-15T01:18:31.103Z,101330.28
2023-03-15T01:21:00.753Z,101323.94
2023-03-15T01:23:27.562Z,101334.13
2023-03-15T01:25:54.149Z,101329.75
2023-03-15T01:28:23.010Z,101325.69
2023-03-15T01:30:51.250Z,101321.41
2023-03-15T01:33:17.946Z,101327.84
2023-03-15T01:35:44.661Z,101333.41
2023-03-15T01:38:11.572Z,101318.72
2023-03-15T01:40:45.810Z,101342.25
2023-03-15T01:43:21.702Z,101351.03
2023-03-15T01:46:01.876Z,101266.75
2023-03-15T01:48:45.082Z,101341.31
2023-03-15T01:51:22.627Z,101343.06
2023-03-15T01:54:00.828Z,101333.25
2023-03-15T01:56:28.137Z,101333.16
2023-03-15T01:58:59.556Z,101341.69
2023-03-15T02:01:26.876Z,101338.63
2023-03-15T02:04:01.885Z,101299.97
2023-03-15T02:06:29.252Z,101340.44
2023-03-15T02:09:06.340Z,101342.03
2023-03-15T02:11:36.866Z,101334.72
2023-03-15T02:14:05.586Z,101324.50
2023-03-15T02:16:32.449Z,101330.56
2023-03-15T02:19:01.567Z,101340.28
2023-03-15T02:21:46.266Z,101347.25
2023-03-15T02:24:23.075Z,101345.31
2023-03-15T02:26:55.916Z,101345.16
2023-03-15T02:29:28.944Z,101333.84
2023-03-15T02:31:58.466Z,101189.63
2023-03-15T02:34:25.586Z,101339.59
2023-03-15T02:36:52.835Z,101315.44
2023-03-15T02:39:21.496Z,101269.47
2023-03-15T02:41:58.969Z,101298.22
2023-03-15T02:44:32.908Z,101345.25
2023-03-15T02:47:10.871Z,101332.44
2023-03-15T02:49:43.981Z,101338.38
2023-03-15T02:52:13.950Z,101367.91
2023-03-15T02:54:43.701Z,101355.50
2023-03-15T02:57:11.458Z,101370.34
2023-03-15T02:59:38.227Z,101368.53
2023-03-15T03:02:08.066Z,101372.88
2023-03-15T03:04:34.921Z,101342.63
2023-03-15T03:07:03.708Z,101375.22
2023-03-15T03:09:31.037Z,101395.84
2023-03-15T03:11:59.846Z,101399.72
2023-03-15T03:14:26.483Z,101408.06
2023-03-15T03:16:53.090Z,101305.03
2023-03-15T03:19:19.743Z,101401.19
2023-03-15T03:21:46.393Z,101404.13
2023-03-15T03:24:16.089Z,101395.00
2023-03-15T03:26:48.352Z,101425.69
2023-03-15T03:29:17.651Z,101436.69
2023-03-15T03:31:44.783Z,101402.25
2023-03-15T03:34:14.605Z,101441.53
2023-03-15T03:36:42.910Z,101445.38
2023-03-15T03:39:12.559Z,101444.03
2023-03-15T03:41:39.130Z,101452.91
2023-03-15T03:44:05.726Z,101453.84
2023-03-15T03:46:32.350Z,101446.09
2023-03-15T03:48:59.008Z,101434.06
2023-03-15T03:51:25.807Z,101402.09
2023-03-15T03:53:54.703Z,101458.78
2023-03-15T03:56:23.725Z,101444.06
2023-03-15T03:58:51.110Z,101393.88
2023-03-15T04:01:17.980Z,101464.47
2023-03-15T04:03:44.838Z,101463.59
2023-03-15T04:06:11.441Z,101453.53
2023-03-15T04:08:38.091Z,101468.38
2023-03-15T04:11:04.876Z,101478.31
2023-03-15T04:13:31.690Z,101459.59
2023-03-15T04:15:58.636Z,101486.56
2023-03-15T04:18:25.509Z,101485.91
2023-03-15T04:20:54.861Z,101493.84
2023-03-15T04:23:24.718Z,101493.44
2023-03-15T04:25:52.652Z,101413.75
2023-03-15T04:28:19.847Z,101513.16
2023-03-15T04:30:49.154Z,101483.53
2023-03-15T04:33:16.021Z,101524.47
2023-03-15T04:35:42.871Z,101503.50
2023-03-15T04:38:11.893Z,101497.38
2023-03-15T04:40:38.728Z,101493.28
2023-03-15T04:43:05.894Z,101522.34
2023-03-15T04:45:33.225Z,101530.97
2023-03-15T04:48:01.655Z,101536.53
2023-03-15T04:50:30.235Z,101537.53
2023-03-15T04:52:59.050Z,101538.72
2023-03-15T04:55:28.350Z,101549.66
2023-03-15T04:57:55.428Z,101543.63
2023-03-15T05:00:22.185Z,101545.50
2023-03-15T05:02:54.827Z,101552.94
2023-03-15T05:05:23.815Z,101555.56
2023-03-15T05:07:50.782Z,101522.59
2023-03-15T05:10:23.638Z,101545.50
2023-03-15T05:12:50.164Z,101535.31
2023-03-15T05:15:17.170Z,101566.69
2023-03-15T05:17:46.631Z,101570.34
2023-03-15T05:20:15.666Z,101571.34
2023-03-15T05:22:43.050Z,101577.69
2023-03-15T05:25:13.933Z,101539.34
2023-03-15T05:27:41.697Z,101545.66
2023-03-15T05:30:09.329Z,101555.41
2023-03-15T05:32:39.469Z,101577.41
2023-03-15T05:35:10.015Z,101591.59
2023-03-15T05:37:36.774Z,101592.53
2023-03-15T05:40:09.938Z,101590.03
2023-03-15T05:42:38.735Z,101599.88
2023-03-15T05:45:05.904Z,101570.34
2023-03-15T05:47:33.713Z,101590.66
2023-03-15T05:50:00.732Z,101588.75
2023-03-15T05:52:27.282Z,101607.00
2023-03-15T05:54:56.409Z,101584.31
2023-03-15T05:57:25.970Z,101602.84
2023-03-15T05:59:54.106Z,101621.75
2023-03-15T06:02:21.903Z,101599.81
2023-03-15T06:04:48.506Z,101587.34
2023-03-15T06:07:15.066Z,101617.09
2023-03-15T06:09:41.670Z,101604.69
2023-03-15T06:12:10.853Z,101627.41
2023-03-15T06:14:37.501Z,101636.28
2023-03-15T06:17:07.291Z,101645.88
2023-03-15T06:19:34.285Z,101642.22
2023-03-15T06:22:01.805Z,101621.31
2023-03-15T06:24:28.490Z,101637.81
2023-03-15T06:26:57.522Z,101650.66
2023-03-15T06:29:24.637Z,101655.28
2023-03-15T06:31:51.353Z,101614.81
2023-03-15T06:34:17.927Z,101669.59
2023-03-15T06:36:45.449Z,101646.84
2023-03-15T06:39:12.678Z,101624.91
2023-03-15T06:41:41.755Z,101658.25
2023-03-15T06:44:08.897Z,101694.09
2023-03-15T06:46:35.526Z,101698.34
2023-03-15T06:49:02.161Z,101693.56
2023-03-15T06:51:29.103Z,101657.94
2023-03-15T06:53:58.178Z,101701.00
2023-03-15T06:56:24.782Z,101722.81
2023-03-15T06:58:51.336Z,101683.00
2023-03-15T07:01:20.192Z,101726.44
2023-03-15T07:03:46.753Z,101708.50
2023-03-15T07:06:13.323Z,101727.13
2023-03-15T07:08:39.893Z,101720.56
2023-03-15T07:11:07.171Z,101697.84
2023-03-15T07:13:35.289Z,101720.34
2023-03-15T07:16:02.061Z,101742.41
2023-03-15T07:18:28.693Z,101655.63
2023-03-15T07:21:01.819Z,101757.38
2023-03-15T07:23:28.990Z,101747.84
2023-03-15T07:25:56.267Z,101755.72
2023-03-15T07:28:27.188Z,101760.47
2023-03-15T07:30:53.826Z,101766.31
2023-03-15T07:33:23.042Z,101716.09
2023-03-15T07:35:53.943Z,101781.44
2023-03-15T07:38:27.307Z,101782.41
2023-03-15T07:40:54.372Z,101780.66
2023-03-15T07:43:21.222Z,101750.50
2023-03-15T07:45:47.965Z,101786.22
2023-03-15T07:48:14.770Z,101795.03
2023-03-15T07:50:41.716Z,101798.72
2023-03-15T07:53:08.727Z,101790.78
2023-03-15T07:55:36.177Z,101806.47
2023-03-15T07:58:02.857Z,101806.00
2023-03-15T08:00:32.382Z,101772.94
2023-03-15T08:02:59.943Z,101824.03
2023-03-15T08:05:28.902Z,101807.81
2023-03-15T08:07:56.732Z,101831.44
2023-03-15T08:10:26.046Z,101822.13
2023-03-15T08:12:52.858Z,101755.72
2023-03-15T08:15:20.037Z,101845.66
2023-03-15T08:17:49.740Z,101819.56
2023-03-15T08:20:20.182Z,101853.75
2023-03-15T08:22:48.497Z,101845.66
2023-03-15T08:25:18.155Z,101850.81
2023-03-15T08:27:44.873Z,101824.28
2023-03-15T08:30:13.731Z,101857.44
2023-03-15T08:32:41.753Z,101851.22
2023-03-15T08:35:15.148Z,101843.75
2023-03-15T08:37:47.870Z,101843.09
2023-03-15T08:40:16.425Z,101843.09
2023-03-15T08:42:43.053Z,101831.84
2023-03-15T08:45:10.618Z,101831.47
2023-03-15T08:47:37.802Z,101802.34
2023-03-15T08:50:14.462Z,101846.44
2023-03-15T08:52:42.229Z,101814.69
2023-03-15T08:55:10.323Z,101837.78
2023-03-15T08:57:39.533Z,101817.13
2023-03-15T09:00:08.292Z,101855.91
2023-03-15T09:02:35.998Z,101856.63
2023-03-15T09:05:04.231Z,101858.03
2023-03-15T09:07:32.751Z,101847.25
2023-03-15T09:10:04.032Z,101859.03
2023-03-15T09:12:31.928Z,101863.16
2023-03-15T09:14:58.430Z,101835.16
2023-03-15T09:17:25.013Z,101859.41
2023-03-15T09:19:52.701Z,101860.28
2023-03-15T09:22:34.716Z,101856.09
2023-03-15T09:25:05.126Z,101850.84
2023-03-15T09:27:32.240Z,101864.78
2023-03-15T09:29:58.916Z,101858.03
2023-03-15T09:32:26.310Z,101856.38
2023-03-15T09:34:53.805Z,101864.09
2023-03-15T09:37:22.106Z,101866.63
2023-03-15T09:39:48.985Z,101869.75
2023-03-15T09:42:59.795Z,101872.38
2023-03-15T09:46:06.134Z,101862.56
2023-03-15T09:48:48.032Z,101875.06
2023-03-15T09:51:35.436Z,101886.69
2023-03-15T09:54:27.408Z,101868.00
2023-03-15T09:57:02.186Z,101883.28
2023-03-15T09:59:42.457Z,101865.94
2023-03-15T10:02:24.610Z,101893.06
2023-03-15T10:04:56.549Z,101881.41
2023-03-15T10:07:23.254Z,101811.59
2023-03-15T10:09:49.916Z,101890.56
2023-03-15T10:12:26.351Z,101873.09
2023-03-15T10:15:07.061Z,101867.78
2023-03-15T10:17:33.548Z,101890.78
2023-03-15T10:20:06.752Z,101881.22
2023-03-15T10:23:08.886Z,101892.38
2023-03-15T10:25:37.634Z,101874.25
2023-03-15T10:28:13.237Z,101893.16
2023-03-15T10:30:47.878Z,101887.03
2023-03-15T10:33:31.936Z,101894.06
2023-03-15T10:36:10.576Z,101847.19
2023-03-15T10:38:39.327Z,101883.91
2023-03-15T10:41:06.942Z,101902.56
2023-03-15T10:43:37.091Z,101903.38
2023-03-15T10:46:14.808Z,101895.47
2023-03-15T10:49:16.930Z,101904.75
2023-03-15T10:51:50.467Z,101909.00
2023-03-15T10:54:25.105Z,101880.91
2023-03-15T10:57:07.664Z,101902.09
2023-03-15T10:59:35.653Z,101916.75
2023-03-15T11:02:14.461Z,101925.38
2023-03-15T11:04:42.565Z,101880.03
2023-03-15T11:07:13.545Z,101918.47
2023-03-15T11:09:45.784Z,101846.38
2023-03-15T11:12:33.313Z,101918.81
2023-03-15T11:15:10.791Z,101917.19
2023-03-15T11:17:44.262Z,101944.69
2023-03-15T11:20:36.597Z,101940.78
2023-03-15T11:23:18.645Z,101941.78
2023-03-15T11:25:45.796Z,101945.78
2023-03-15T11:28:22.589Z,101940.09
2023-03-15T11:30:49.732Z,101940.91
2023-03-15T11:33:35.785Z,101919.44
2023-03-15T11:36:07.696Z,101940.63
2023-03-15T11:38:45.849Z,101946.53
2023-03-15T11:41:47.625Z,101934.63
2023-03-15T11:44:28.629Z,101896.50
2023-03-15T11:47:04.500Z,101924.31
2023-03-15T11:49:37.143Z,101926.47
2023-03-15T11:52:08.975Z,101934.31
2023-03-15T11:54:36.479Z,101932.50
2023-03-15T11:57:06.285Z,101908.75
2023-03-15T11:59:37.878Z,101916.59
2023-03-15T12:02:11.146Z,101920.81
2023-03-15T12:04:39.921Z,101918.25
2023-03-15T12:07:25.944Z,101903.88
2023-03-15T12:09:56.294Z,101920.09
2023-03-15T12:12:25.997Z,101916.09
2023-03-15T12:15:14.602Z,101921.69
2023-03-15T12:17:54.272Z,101922.63
2023-03-15T12:20:38.017Z,101916.94
2023-03-15T12:23:30.966Z,101888.72
2023-03-15T12:26:03.593Z,101917.31
2023-03-15T12:28:38.608Z,101915.09
2023-03-15T12:31:13.120Z,101852.59
2023-03-15T12:33:57.981Z,101918.03
2023-03-15T12:36:36.954Z,101915.16
2023-03-15T12:39:15.660Z,101915.47
2023-03-15T12:41:49.948Z,101906.22
2023-03-15T12:44:24.910Z,101905.38
2023-03-15T12:46:51.456Z,101908.69
2023-03-15T12:49:23.838Z,101917.22
2023-03-15T12:52:11.878Z,101917.53
2023-03-15T12:54:46.819Z,101898.66
2023-03-15T12:57:18.534Z,101847.53
2023-03-15T12:59:51.666Z,101909.91
2023-03-15T13:02:42.195Z,101899.50
2023-03-15T13:05:09.620Z,101924.56
2023-03-15T13:07:50.645Z,101916.94
2023-03-15T13:10:41.024Z,101914.16
2023-03-15T13:13:13.672Z,101919.25
2023-03-15T13:15:55.272Z,101894.59
2023-03-15T13:18:24.569Z,101912.91
2023-03-15T13:21:12.805Z,101917.09
2023-03-15T13:23:44.933Z,101895.50
2023-03-15T13:26:39.640Z,101911.31
2023-03-15T13:29:17.820Z,101909.47
2023-03-15T13:31:48.455Z,101903.97
2023-03-15T13:34:24.815Z,101908.41
2023-03-15T13:36:56.851Z,101901.91
2023-03-15T13:39:27.312Z,101910.50
2023-03-15T13:41:59.619Z,101908.25
2023-03-15T13:44:30.387Z,101915.81
2023-03-15T13:46:58.385Z,101917.81
2023-03-15T13:49:30.262Z,101921.03
2023-03-15T13:51:58.827Z,101923.22
2023-03-15T13:54:35.944Z,101922.78
2023-03-15T13:57:09.078Z,101920.31
2023-03-15T13:59:42.847Z,101915.09
2023-03-15T14:02:35.233Z,101927.94
2023-03-15T14:05:16.943Z,101905.72
2023-03-15T14:07:48.485Z,101917.00
2023-03-15T14:10:34.989Z,101925.59
2023-03-15T14:13:20.262Z,101927.56
2023-03-15T14:15:50.911Z,101934.78
2023-03-15T14:18:24.664Z,101899.81
2023-03-15T14:21:00.840Z,101917.75
2023-03-15T14:23:29.893Z,101925.47
2023-03-15T14:26:35.116Z,101897.47
2023-03-15T14:29:15.693Z,101917.13
2023-03-15T14:31:48.696Z,101936.47
2023-03-15T14:34:33.803Z,101924.03
2023-03-15T14:37:04.450Z,101939.41
2023-03-15T14:39:45.019Z,101933.47
2023-03-15T14:42:13.981Z,101930.28
2023-03-15T14:44:42.791Z,101909.16
2023-03-15T14:47:15.965Z,101917.38
2023-03-15T14:49:42.706Z,101942.38
2023-03-15T14:52:13.434Z,101926.06
2023-03-15T14:54:49.348Z,101924.72
2023-03-15T14:57:15.992Z,101902.91
2023-03-15T14:59:42.560Z,101918.84
2023-03-15T15:02:17.096Z,101920.22
2023-03-15T15:04:44.153Z,101907.06
2023-03-15T15:07:13.438Z,101895.63
2023-03-15T15:09:47.362Z,101920.22
2023-03-15T15:12:14.237Z,101912.41
2023-03-15T15:14:42.762Z,101851.94
2023-03-15T15:17:10.007Z,101909.59
2023-03-15T15:19:38.945Z,101883.09
2023-03-15T15:22:10.958Z,101896.25
2023-03-15T15:24:37.662Z,101892.88
2023-03-15T15:27:09.195Z,101901.84
2023-03-15T15:29:35.914Z,101883.88
2023-03-15T15:32:02.771Z,101891.16
2023-03-15T15:34:29.567Z,101868.75
2023-03-15T15:36:57.062Z,101895.00
2023-03-15T15:39:29.426Z,101897.16
2023-03-15T15:41:58.801Z,101898.38
2023-03-15T15:44:27.843Z,101890.63
2023-03-15T15:46:54.488Z,101808.06
2023-03-15T15:49:21.217Z,101848.09
2023-03-15T15:51:51.429Z,101854.56
2023-03-15T15:54:22.944Z,101849.63
2023-03-15T15:56:52.351Z,101810.00
2023-03-15T15:59:19.683Z,101883.69
2023-03-15T16:02:00.088Z,101875.88
2023-03-15T16:04:28.499Z,101902.72
2023-03-15T16:07:02.462Z,101851.53
2023-03-15T16:09:32.157Z,101881.28
2023-03-15T16:12:01.206Z,101886.16
2023-03-15T16:14:27.767Z,101875.25
2023-03-15T16:16:56.816Z,101887.41
2023-03-15T16:19:23.534Z,101884.97
2023-03-15T16:21:52.498Z,101883.72
2023-03-15T16:24:30.419Z,101885.94
2023-03-15T16:27:04.619Z,101857.81
2023-03-15T16:29:43.266Z,101886.44
2023-03-15T16:32:19.261Z,101874.81
2023-03-15T16:34:54.536Z,101893.91
2023-03-15T16:37:29.119Z,101874.41
2023-03-15T16:39:56.115Z,101890.75
2023-03-15T16:42:26.000Z,101892.34
2023-03-15T16:44:53.539Z,101894.06
2023-03-15T16:47:20.489Z,101868.91
2023-03-15T16:49:47.048Z,101893.94
2023-03-15T16:52:15.980Z,101897.13
2023-03-15T16:54:47.543Z,101902.19
2023-03-15T16:57:21.975Z,101902.91
2023-03-15T16:59:49.189Z,101907.94
2023-03-15T17:02:24.371Z,101913.00
2023-03-15T17:04:54.124Z,101911.09
2023-03-15T17:07:33.252Z,101903.41
2023-03-15T17:10:08.502Z,101894.00
2023-03-15T17:12:36.905Z,101911.13
2023-03-15T17:15:07.562Z,101905.72
2023-03-15T17:17:36.305Z,101914.00
2023-03-15T17:20:12.928Z,101858.94
2023-03-15T17:22:43.505Z,101830.69
2023-03-15T17:25:10.852Z,101912.00
2023-03-15T17:27:41.210Z,101906.13
2023-03-15T17:30:15.159Z,101909.41
2023-03-15T17:32:41.970Z,101890.72
2023-03-15T17:35:09.346Z,101910.53
2023-03-15T17:37:39.026Z,101909.44
2023-03-15T17:40:18.299Z,101915.78
2023-03-15T17:42:45.070Z,101922.59
2023-03-15T17:45:20.825Z,101920.19
2023-03-15T17:47:48.763Z,101924.34
2023-03-15T17:50:18.303Z,101929.13
2023-03-15T17:52:46.550Z,101924.44
2023-03-15T17:55:21.423Z,101906.47
2023-03-15T17:57:55.155Z,101937.38
2023-03-15T18:00:24.436Z,101938.66
2023-03-15T18:02:55.983Z,101877.44
2023-03-15T18:05:30.304Z,101941.81
2023-03-15T18:08:04.064Z,101945.63
2023-03-15T18:10:41.731Z,101949.41
2023-03-15T18:13:18.056Z,101947.91
2023-03-15T18:15:46.268Z,101949.94
2023-03-15T18:18:16.029Z,101932.63
2023-03-15T18:20:43.007Z,101936.44
2023-03-15T18:23:13.660Z,101929.69
2023-03-15T18:25:43.572Z,101904.53
2023-03-15T18:28:12.552Z,101951.09
2023-03-15T18:30:41.906Z,101943.06
2023-03-15T18:33:12.110Z,101947.72
2023-03-15T18:35:38.762Z,101946.94
2023-03-15T18:38:05.870Z,101944.34
2023-03-15T18:40:35.826Z,101957.16
2023-03-15T18:43:04.247Z,101936.63
2023-03-15T18:45:36.276Z,101952.13
2023-03-15T18:48:05.771Z,101931.44
2023-03-15T18:50:33.810Z,101848.66
2023-03-15T18:53:00.945Z,101948.09
2023-03-15T18:55:27.595Z,101942.88
2023-03-15T18:57:55.328Z,101946.53
2023-03-15T19:00:28.476Z,101944.06
2023-03-15T19:03:00.714Z,101919.88
2023-03-15T19:05:29.617Z,101941.75
2023-03-15T19:07:56.849Z,101943.69
2023-03-15T19:10:24.687Z,101945.63
2023-03-15T19:12:54.001Z,101913.41
2023-03-15T19:15:22.857Z,101942.44
2023-03-15T19:17:55.500Z,101941.78
2023-03-15T19:20:23.615Z,101925.69
2023-03-15T19:22:54.532Z,101871.34
2023-03-15T19:25:21.681Z,101832.19
2023-03-15T19:27:48.801Z,101926.19
2023-03-15T19:30:20.903Z,101893.00
2023-03-15T19:32:48.547Z,101892.44
2023-03-15T19:35:16.423Z,101900.28
2023-03-15T19:37:44.489Z,101893.50
2023-03-15T19:40:12.569Z,101891.97
2023-03-15T19:42:39.389Z,101927.97
2023-03-15T19:45:07.234Z,101926.31
2023-03-15T19:47:33.851Z,101923.16
2023-03-15T19:50:03.248Z,101932.94
2023-03-15T19:52:29.838Z,101926.84
2023-03-15T19:54:56.482Z,101925.19
2023-03-15T19:57:23.116Z,101925.50
2023-03-15T19:59:49.709Z,101925.78
2023-03-15T20:02:16.418Z,101920.66
2023-03-15T20:04:43.049Z,101934.09
2023-03-15T20:07:11.240Z,101901.00
2023-03-15T20:09:41.467Z,101910.69
2023-03-15T20:12:11.128Z,101730.22
2023-03-15T20:14:37.967Z,101928.91
2023-03-15T20:17:04.744Z,101857.66
2023-03-15T20:19:34.058Z,101904.91
2023-03-15T20:22:00.658Z,101893.09
2023-03-15T20:24:27.237Z,101925.00
2023-03-15T20:26:56.618Z,101921.63
2023-03-15T20:29:23.276Z,101924.25
2023-03-15T20:31:53.545Z,101927.72
2023-03-15T20:34:22.465Z,101929.75
2023-03-15T20:36:52.679Z,101919.78
2023-03-15T20:39:19.381Z,101912.03
2023-03-15T20:41:48.192Z,101920.56
2023-03-15T20:44:14.744Z,101884.03
2023-03-15T20:46:41.755Z,101924.41
2023-03-15T20:49:08.394Z,101919.09
2023-03-15T20:51:35.038Z,101927.31
2023-03-15T20:54:01.708Z,101916.56
2023-03-15T20:56:28.642Z,101918.75
2023-03-15T20:58:55.644Z,101912.34
2023-03-15T21:01:22.682Z,101927.53
2023-03-15T21:03:49.653Z,101922.31
2023-03-15T21:06:16.638Z,101906.34
2023-03-15T21:08:46.312Z,101912.44
2023-03-15T21:11:13.411Z,101917.94
2023-03-15T21:13:40.553Z,101917.09
2023-03-15T21:16:07.751Z,101896.94
2023-03-15T21:18:36.193Z,101912.63
2023-03-15T21:21:06.055Z,101906.34
2023-03-15T21:23:34.494Z,101895.97
2023-03-15T21:26:04.427Z,101916.47
2023-03-15T21:28:34.989Z,101861.44
2023-03-15T21:31:02.261Z,101901.72
2023-03-15T21:33:31.330Z,101899.38
2023-03-15T21:35:59.890Z,101901.81
2023-03-15T21:38:31.648Z,101883.00
2023-03-15T21:41:00.401Z,101892.25
2023-03-15T21:43:31.378Z,101897.66
2023-03-15T21:46:07.849Z,101832.03
2023-03-15T21:48:38.379Z,101883.72
2023-03-15T21:51:08.393Z,101875.97
2023-03-15T21:53:36.136Z,101887.66
2023-03-15T21:56:05.602Z,101888.91
2023-03-15T21:58:34.557Z,101889.88
2023-03-15T22:01:04.737Z,101882.22
2023-03-15T22:03:35.367Z,101891.19
2023-03-15T22:06:04.136Z,101787.78
2023-03-15T22:08:34.369Z,101817.69
2023-03-15T22:11:04.781Z,101879.44
2023-03-15T22:13:31.557Z,101868.84
2023-03-15T22:16:01.489Z,101879.44
2023-03-15T22:18:31.930Z,101768.78
2023-03-15T22:20:58.616Z,101848.44
2023-03-15T22:23:25.537Z,101825.97
2023-03-15T22:25:53.695Z,101873.47
2023-03-15T22:28:21.950Z,101845.00
2023-03-15T22:30:49.839Z,101840.72
2023-03-15T22:33:17.733Z,101848.81
2023-03-15T22:35:54.025Z,101849.03
2023-03-15T22:38:20.651Z,101870.28
2023-03-15T22:40:47.257Z,101868.72
2023-03-15T22:43:14.664Z,101780.69
2023-03-15T22:45:43.598Z,101851.28
2023-03-15T22:48:10.350Z,101843.47
2023-03-15T22:50:37.056Z,101861.75
2023-03-15T22:53:03.656Z,101873.53
2023-03-15T22:55:30.215Z,101841.00
2023-03-15T22:57:56.824Z,101867.50
2023-03-15T23:00:24.060Z,101849.91
2023-03-15T23:02:50.864Z,101855.91
2023-03-15T23:05:19.822Z,101871.00
2023-03-15T23:07:46.649Z,101856.88
2023-03-15T23:10:13.314Z,101871.69
2023-03-15T23:12:44.689Z,101863.50
2023-03-15T23:15:14.694Z,101772.84
2023-03-15T23:17:46.138Z,101870.66
2023-03-15T23:20:17.915Z,101868.72
2023-03-15T23:22:45.860Z,101858.69
2023-03-15T23:25:17.225Z,101845.59
2023-03-15T23:27:43.829Z,101845.84
2023-03-15T23:30:11.142Z,101848.47
2023-03-15T23:32:37.868Z,101843.84
2023-03-15T23:35:08.796Z,101849.16
2023-03-15T23:37:35.819Z,101838.00
2023-03-15T23:40:15.602Z,101848.38
2023-03-15T23:42:44.009Z,101816.56
2023-03-15T23:45:17.093Z,101817.53
2023-03-15T23:47:44.120Z,101820.91
2023-03-15T23:50:12.724Z,101846.19
2023-03-15T23:52:39.509Z,101846.00
2023-03-15T23:55:06.657Z,101814.56
2023-03-15T23:57:33.234Z,101841.38
2023-03-15T23:59:59.999Z,101811.38
